Map

Track Data

SID SEASON NUMBER BASIN SUBBASIN NAME ISO_TIME NATURE LAT LON WMO_WIND WMO_PRES WMO_AGENCY TRACK_TYPE DIST2LAND LANDFALL IFLAG USA_AGENCY USA_ATCF_ID USA_LAT USA_LON USA_RECORD USA_STATUS USA_WIND USA_PRES USA_SSHS USA_R34_NE USA_R34_SE USA_R34_SW USA_R34_NW USA_R50_NE USA_R50_SE USA_R50_SW USA_R50_NW USA_R64_NE USA_R64_SE USA_R64_SW USA_R64_NW USA_POCI USA_ROCI USA_RMW USA_EYE TOKYO_LAT TOKYO_LON TOKYO_GRADE TOKYO_WIND TOKYO_PRES TOKYO_R50_DIR TOKYO_R50_LONG TOKYO_R50_SHORT TOKYO_R30_DIR TOKYO_R30_LONG TOKYO_R30_SHORT TOKYO_LAND CMA_LAT CMA_LON CMA_CAT CMA_WIND CMA_PRES HKO_LAT HKO_LON HKO_CAT HKO_WIND HKO_PRES NEWDELHI_LAT NEWDELHI_LON NEWDELHI_GRADE NEWDELHI_WIND NEWDELHI_PRES NEWDELHI_CI NEWDELHI_DP NEWDELHI_POCI REUNION_LAT REUNION_LON REUNION_TYPE REUNION_WIND REUNION_PRES REUNION_TNUM REUNION_CI REUNION_RMW REUNION_R34_NE REUNION_R34_SE REUNION_R34_SW REUNION_R34_NW REUNION_R50_NE REUNION_R50_SE REUNION_R50_SW REUNION_R50_NW REUNION_R64_NE REUNION_R64_SE REUNION_R64_SW REUNION_R64_NW BOM_LAT BOM_LON BOM_TYPE BOM_WIND BOM_PRES BOM_TNUM BOM_CI BOM_RMW BOM_R34_NE BOM_R34_SE BOM_R34_SW BOM_R34_NW BOM_R50_NE BOM_R50_SE BOM_R50_SW BOM_R50_NW BOM_R64_NE BOM_R64_SE BOM_R64_SW BOM_R64_NW BOM_ROCI BOM_POCI BOM_EYE BOM_POS_METHOD BOM_PRES_METHOD NADI_LAT NADI_LON NADI_CAT NADI_WIND NADI_PRES WELLINGTON_LAT WELLINGTON_LON WELLINGTON_WIND WELLINGTON_PRES DS824_LAT DS824_LON DS824_STAGE DS824_WIND DS824_PRES TD9636_LAT TD9636_LON TD9636_STAGE TD9636_WIND TD9636_PRES TD9635_LAT TD9635_LON TD9635_WIND TD9635_PRES TD9635_ROCI NEUMANN_LAT NEUMANN_LON NEUMANN_CLASS NEUMANN_WIND NEUMANN_PRES MLC_LAT MLC_LON MLC_CLASS MLC_WIND MLC_PRES USA_GUST BOM_GUST BOM_GUST_PER REUNION_GUST REUNION_GUST_PER USA_SEAHGT USA_SEARAD_NE USA_SEARAD_SE USA_SEARAD_SW USA_SEARAD_NW STORM_SPEED STORM_DIR
1976271N23302 1976 120 NA NA GLORIA 1976-09-26 12:00:00 TS 23.0000 -58.0000 20 1009 hurdat_atl main 942 942 O_____________ hurdat_atl AL171976 23.0000 -58.0000 TD 20 1009 -1 7 353
1976271N23302 1976 120 NA NA GLORIA 1976-09-26 15:00:00 TS 23.3600 -58.0450 main 966 958 P_____________ AL171976 23.3600 -58.0450 TD 20 1008 -1 7 353
1976271N23302 1976 120 NA NA GLORIA 1976-09-26 18:00:00 TS 23.7000 -58.1000 20 1007 hurdat_atl main 977 977 O_____________ hurdat_atl AL171976 23.7000 -58.1000 TD 20 1007 -1 7 350
1976271N23302 1976 120 NA NA GLORIA 1976-09-26 21:00:00 TS 24.0075 -58.1649 main 989 989 P_____________ AL171976 24.0075 -58.1649 TD 22 1006 -1 6 352
1976271N23302 1976 120 NA NA GLORIA 1976-09-27 00:00:00 TS 24.3000 -58.2000 25 1005 hurdat_atl main 1010 1010 O_____________ hurdat_atl AL171976 24.3000 -58.2000 TD 25 1005 -1 6 0
1976271N23302 1976 120 NA NA GLORIA 1976-09-27 03:00:00 TS 24.5850 -58.1651 main 1032 1032 P_____________ AL171976 24.5850 -58.1651 TD 27 1003 -1 6 8
1976271N23302 1976 120 NA NA GLORIA 1976-09-27 06:00:00 TS 24.9000 -58.1000 30 1001 hurdat_atl main 1061 1061 O_____________ hurdat_atl AL171976 24.9000 -58.1000 TD 30 1001 -1 7 9
1976271N23302 1976 120 NA NA GLORIA 1976-09-27 09:00:00 TS 25.3000 -58.0426 main 1099 1099 P_____________ AL171976 25.3000 -58.0426 TD 32 999 -1 8 6
1976271N23302 1976 120 NA NA GLORIA 1976-09-27 12:00:00 TS 25.7000 -58.0000 35 997 hurdat_atl main 1130 1130 O_____________ hurdat_atl AL171976 25.7000 -58.0000 TS 35 997 0 7 4
1976271N23302 1976 120 NA NA GLORIA 1976-09-27 15:00:00 TS 26.0075 -57.9924 main 1154 1154 P_____________ AL171976 26.0075 -57.9924 TS 40 995 0 6 1
1976271N23302 1976 120 NA NA GLORIA 1976-09-27 18:00:00 TS 26.3000 -58.0000 45 994 hurdat_atl main 1178 1178 O_____________ hurdat_atl AL171976 26.3000 -58.0000 TS 45 994 0 7 1
1976271N23302 1976 120 NA NA GLORIA 1976-09-27 21:00:00 TS 26.6575 -57.9851 main 1211 1211 P_____________ AL171976 26.6575 -57.9851 TS 50 993 0 7 0
1976271N23302 1976 120 NA NA GLORIA 1976-09-28 00:00:00 TS 27.0000 -58.0000 55 993 hurdat_atl main 1236 1236 O_____________ hurdat_atl AL171976 27.0000 -58.0000 TS 55 993 0 6 352
1976271N23302 1976 120 NA NA GLORIA 1976-09-28 03:00:00 TS 27.2800 -58.0700 main 1256 1256 P_____________ AL171976 27.2800 -58.0700 TS 57 992 0 5 340
1976271N23302 1976 120 NA NA GLORIA 1976-09-28 06:00:00 TS 27.5000 -58.2000 60 992 hurdat_atl main 1267 1264 O_____________ hurdat_atl AL171976 27.5000 -58.2000 TS 60 992 0 5 323
1976271N23302 1976 120 NA NA GLORIA 1976-09-28 09:00:00 TS 27.6575 -58.3851 main 1273 1267 P_____________ AL171976 27.6575 -58.3851 TS 60 992 0 5 310
1976271N23302 1976 120 NA NA GLORIA 1976-09-28 12:00:00 TS 27.8000 -58.6000 60 992 hurdat_atl main 1270 1264 O_____________ hurdat_atl AL171976 27.8000 -58.6000 TS 60 992 0 5 313
1976271N23302 1976 120 NA NA GLORIA 1976-09-28 15:00:00 TS 27.9924 -58.7926 main 1277 1277 P_____________ AL171976 27.9924 -58.7926 TS 60 991 0 5 319
1976271N23302 1976 120 NA NA GLORIA 1976-09-28 18:00:00 TS 28.2000 -59.0000 60 991 hurdat_atl main 1285 1279 O_____________ hurdat_atl AL171976 28.2000 -59.0000 TS 60 991 0 6 314
1976271N23302 1976 120 NA NA GLORIA 1976-09-28 21:00:00 TS 28.3926 -59.2575 main 1288 1288 P_____________ AL171976 28.3926 -59.2575 TS 60 989 0 6 312
1976271N23302 1976 120 NA NA GLORIA 1976-09-29 00:00:00 TS 28.6000 -59.5000 60 988 hurdat_atl main 1297 1297 O_____________ hurdat_atl AL171976 28.6000 -59.5000 TS 60 988 0 6 322
1976271N23302 1976 120 NA NA GLORIA 1976-09-29 03:00:00 TS 28.8349 -59.6577 main 1307 1307 P_____________ AL171976 28.8349 -59.6577 TS 62 986 0 6 332
1976271N23302 1976 120 NA NA GLORIA 1976-09-29 06:00:00 TS 29.1000 -59.8000 65 984 hurdat_atl main 1332 1332 O_____________ hurdat_atl AL171976 29.1000 -59.8000 HU 65 984 1 6 331
1976271N23302 1976 120 NA NA GLORIA 1976-09-29 09:00:00 TS 29.4001 -60.0148 main 1353 1353 P_____________ AL171976 29.4001 -60.0148 HU 65 981 1 7 330
1976271N23302 1976 120 NA NA GLORIA 1976-09-29 12:00:00 TS 29.7000 -60.2000 65 979 hurdat_atl main 1375 1375 O_____________ hurdat_atl AL171976 29.7000 -60.2000 HU 65 979 1 6 336
1976271N23302 1976 120 NA NA GLORIA 1976-09-29 15:00:00 TS 29.9274 -60.2876 main 1392 1392 P_____________ AL171976 29.9274 -60.2876 HU 67 976 1 5 350
1976271N23302 1976 120 NA NA GLORIA 1976-09-29 18:00:00 TS 30.2000 -60.3000 70 973 hurdat_atl main 1423 1423 O_____________ hurdat_atl AL171976 30.2000 -60.3000 HU 70 973 1 7 0
1976271N23302 1976 120 NA NA GLORIA 1976-09-29 21:00:00 TS 30.6050 -60.2872 main 1464 1451 P_____________ AL171976 30.6050 -60.2872 HU 75 971 1 9 5
1976271N23302 1976 120 NA NA GLORIA 1976-09-30 00:00:00 TS 31.1000 -60.2000 80 970 hurdat_atl main 1451 1401 O_____________ hurdat_atl AL171976 31.1000 -60.2000 HU 80 970 1 11 10
1976271N23302 1976 120 NA NA GLORIA 1976-09-30 03:00:00 TS 31.6497 -60.0671 main 1401 1346 P_____________ AL171976 31.6497 -60.0671 HU 82 970 1 12 17
1976271N23302 1976 120 NA NA GLORIA 1976-09-30 06:00:00 TS 32.2000 -59.8000 85 971 hurdat_atl main 1346 1314 O_____________ hurdat_atl AL171976 32.2000 -59.8000 HU 85 971 2 12 30
1976271N23302 1976 120 NA NA GLORIA 1976-09-30 09:00:00 TS 32.6649 -59.3672 main 1307 1283 P_____________ AL171976 32.6649 -59.3672 HU 87 974 2 12 43
1976271N23302 1976 120 NA NA GLORIA 1976-09-30 12:00:00 TS 33.1000 -58.8000 90 977 hurdat_atl main 1287 1267 O_____________ hurdat_atl AL171976 33.1000 -58.8000 HU 90 977 2 13 48
1976271N23302 1976 120 NA NA GLORIA 1976-09-30 15:00:00 TS 33.5649 -58.1799 main 1261 1248 P_____________ AL171976 33.5649 -58.1799 HU 90 979 2 14 50
1976271N23302 1976 120 NA NA GLORIA 1976-09-30 18:00:00 TS 34.0000 -57.5000 90 981 hurdat_atl main 1253 1248 O_____________ hurdat_atl AL171976 34.0000 -57.5000 HU 90 981 2 14 55
1976271N23302 1976 120 NA NA GLORIA 1976-09-30 21:00:00 TS 34.3723 -56.7994 main 1248 1239 P_____________ AL171976 34.3723 -56.7994 HU 90 983 2 14 59
1976271N23302 1976 120 NA NA GLORIA 1976-10-01 00:00:00 TS 34.7000 -56.1000 90 985 hurdat_atl main 1242 1226 O_____________ hurdat_atl AL171976 34.7000 -56.1000 HU 90 985 2 13 60
1976271N23302 1976 120 NA NA GLORIA 1976-10-01 03:00:00 TS 35.0222 -55.4273 main 1232 1219 P_____________ AL171976 35.0222 -55.4273 HU 87 986 2 12 61
1976271N23302 1976 120 NA NA GLORIA 1976-10-01 06:00:00 TS 35.3000 -54.8000 85 988 hurdat_atl main 1222 1216 O_____________ hurdat_atl AL171976 35.3000 -54.8000 HU 85 988 2 11 63
1976271N23302 1976 120 NA NA GLORIA 1976-10-01 09:00:00 TS 35.5145 -54.2343 main 1225 1212 P_____________ AL171976 35.5145 -54.2343 HU 82 989 1 10 66
1976271N23302 1976 120 NA NA GLORIA 1976-10-01 12:00:00 TS 35.7000 -53.7000 80 990 hurdat_atl main 1212 1190 O_____________ hurdat_atl AL171976 35.7000 -53.7000 HU 80 990 1 10 66
1976271N23302 1976 120 NA NA GLORIA 1976-10-01 15:00:00 TS 35.9074 -53.1350 main 1190 1168 P_____________ AL171976 35.9074 -53.1350 HU 77 991 1 10 66
1976271N23302 1976 120 NA NA GLORIA 1976-10-01 18:00:00 TS 36.1000 -52.6000 75 992 hurdat_atl main 1169 1148 O_____________ hurdat_atl AL171976 36.1000 -52.6000 HU 75 992 1 9 66
1976271N23302 1976 120 NA NA GLORIA 1976-10-01 21:00:00 TS 36.2646 -52.1347 main 1149 1139 P_____________ AL171976 36.2646 -52.1347 HU 72 992 1 8 68
1976271N23302 1976 120 NA NA GLORIA 1976-10-02 00:00:00 TS 36.4000 -51.7000 70 993 hurdat_atl main 1141 1132 O_____________ hurdat_atl AL171976 36.4000 -51.7000 HU 70 993 1 8 71
1976271N23302 1976 120 NA NA GLORIA 1976-10-02 03:00:00 TS 36.5073 -51.2498 main 1135 1127 P_____________ AL171976 36.5073 -51.2498 HU 65 993 1 7 75
1976271N23302 1976 120 NA NA GLORIA 1976-10-02 06:00:00 TS 36.6000 -50.8000 60 994 hurdat_atl main 1129 1121 O_____________ hurdat_atl AL171976 36.6000 -50.8000 TS 60 994 0 7 75
1976271N23302 1976 120 NA NA GLORIA 1976-10-02 09:00:00 TS 36.7073 -50.3500 main 1126 1117 P_____________ AL171976 36.7073 -50.3500 TS 60 994 0 7 75
1976271N23302 1976 120 NA NA GLORIA 1976-10-02 12:00:00 TS 36.8000 -49.9000 60 995 hurdat_atl main 1123 1118 O_____________ hurdat_atl AL171976 36.8000 -49.9000 TS 60 995 0 7 77
1976271N23302 1976 120 NA NA GLORIA 1976-10-02 15:00:00 TS 36.8725 -49.4351 main 1123 1123 P_____________ AL171976 36.8725 -49.4351 TS 57 995 0 7 82
1976271N23302 1976 120 NA NA GLORIA 1976-10-02 18:00:00 TS 36.9000 -49.0000 55 996 hurdat_atl main 1133 1133 O_____________ hurdat_atl AL171976 36.9000 -49.0000 TS 55 996 0 6 89
1976271N23302 1976 120 NA NA GLORIA 1976-10-02 21:00:00 TS 36.8872 -48.6351 main 1143 1143 P_____________ AL171976 36.8872 -48.6351 TS 52 996 0 6 100
1976271N23302 1976 120 NA NA GLORIA 1976-10-03 00:00:00 TS 36.8000 -48.3000 50 997 hurdat_atl main 1162 1162 O_____________ hurdat_atl AL171976 36.8000 -48.3000 TS 50 997 0 6 117
1976271N23302 1976 120 NA NA GLORIA 1976-10-03 03:00:00 TS 36.6074 -47.9497 main 1195 1195 P_____________ AL171976 36.6074 -47.9497 TS 47 997 0 7 125
1976271N23302 1976 120 NA NA GLORIA 1976-10-03 06:00:00 TS 36.4000 -47.6000 45 998 hurdat_atl main 1225 1225 O_____________ hurdat_atl AL171976 36.4000 -47.6000 TS 45 998 0 6 120
1976271N23302 1976 120 NA NA GLORIA 1976-10-03 09:00:00 TS 36.2996 -47.2807 main 1245 1245 P_____________ AL171976 36.2996 -47.2807 TS 42 998 0 6 110
1976271N23302 1976 120 NA NA GLORIA 1976-10-03 12:00:00 TS 36.2000 -46.9000 40 999 hurdat_atl main 1268 1268 O_____________ hurdat_atl AL171976 36.2000 -46.9000 TS 40 999 0 8 113
1976271N23302 1976 120 NA NA GLORIA 1976-10-03 15:00:00 TS 35.9925 -46.3869 main 1306 1306 P_____________ AL171976 35.9925 -46.3869 TS 40 1000 0 10 114
1976271N23302 1976 120 NA NA GLORIA 1976-10-03 18:00:00 TS 35.8000 -45.8000 40 1001 hurdat_atl main 1349 1349 O_____________ hurdat_atl AL171976 35.8000 -45.8000 TS 40 1001 0 10 108
1976271N23302 1976 120 NA NA GLORIA 1976-10-03 21:00:00 TS 35.6968 -45.2372 main 1382 1382 P_____________ AL171976 35.6968 -45.2372 TS 37 1001 0 10 96
1976271N23302 1976 120 NA NA GLORIA 1976-10-04 00:00:00 TS 35.7000 -44.6000 35 1002 hurdat_atl main 1407 1407 O_____________ hurdat_atl AL171976 35.7000 -44.6000 TS 35 1002 0 11 85
1976271N23302 1976 120 NA NA GLORIA 1976-10-04 03:00:00 TS 35.8050 -43.8301 main 1432 1431 P_____________ AL171976 35.8050 -43.8301 TS 32 1002 -1 13 77
1976271N23302 1976 120 NA NA GLORIA 1976-10-04 06:00:00 TS 36.0000 -43.0000 30 1003 hurdat_atl main 1450 1450 O_____________ hurdat_atl AL171976 36.0000 -43.0000 TD 30 1003 -1 13 72
1976271N23302 1976 120 NA NA GLORIA 1976-10-04 09:00:00 TS 36.2025 -42.2801 main 1466 1466 P_____________ AL171976 36.2025 -42.2801 TD 30 1004 -1 14 69
1976271N23302 1976 120 NA NA GLORIA 1976-10-04 12:00:00 TS 36.5000 -41.4000 30 1005 hurdat_atl main 1486 1486 O_____________ hurdat_atl AL171976 36.5000 -41.4000 TD 30 1005 -1 18 68
1976271N23302 1976 120 NA NA GLORIA 1976-10-04 15:00:00 TS 36.8657 -40.2030 main 1519 1519 P_____________ AL171976 36.8657 -40.2030 TD 30 1005 -1 23 67
1976271N23302 1976 120 NA NA GLORIA 1976-10-04 18:00:00 TS 37.4000 -38.7000 30 1006 hurdat_atl main 1568 1568 O_____________ hurdat_atl AL171976 37.4000 -38.7000 TD 30 1006 -1 29 64
1976271N23302 1976 120 NA NA GLORIA 1976-10-04 21:00:00 TS 38.1470 -36.9344 main 1628 1627 P_____________ AL171976 38.1470 -36.9344 TD 30 1007 -1 33 61
1976271N23302 1976 120 NA NA GLORIA 1976-10-05 00:00:00 ET 39.0000 -35.0000 30 1008 hurdat_atl main 1693 O_____________ hurdat_atl AL171976 39.0000 -35.0000 EX 30 1008 -4 35 60

About IBTrACS Database

This database is a web-friendly format of International Best Track Archive for Climate Stewardship (IBTrACS), a global best track data archive curated by NOAA dating back to 1842.

Updated: 2021-10-21